Time;durP1;ratioP1;P1;durP2;ratioP2;P2;SDS_P1;SDS_P2;PMS_P1;PMS_P2;Temp;Humidity;BMP_temperature;BMP_pressure;BME280_temperature;BME280_humidity;BME280_pressure;Samples;Min_cycle;Max_cycle;Signal;HPM_P1;HPM_P2
2021/10/03 00:03:24;;;;;;;1.38;0.77;;;;;16.30;99011.00;;;;10490916;28;20193;-82
2021/10/03 00:08:27;;;;;;;1.27;1.02;;;;;16.30;98996.00;;;;10474484;28;20210;-81
2021/10/03 00:13:30;;;;;;;0.70;0.70;;;;;16.30;99004.00;;;;10474264;28;20194;-81
2021/10/03 00:18:33;;;;;;;1.30;1.20;;;;;16.30;98997.00;;;;10474740;28;20699;-80
2021/10/03 00:23:35;;;;;;;1.20;0.93;;;;;16.30;98991.00;;;;10491063;28;20199;-80
2021/10/03 00:28:37;;;;;;;1.25;0.82;;;;;16.30;98994.00;;;;10507494;28;20210;-80
2021/10/03 00:33:39;;;;;;;1.08;0.90;;;;;16.30;98979.00;;;;10496149;28;20239;-80
2021/10/03 00:38:41;;;;;;;3.90;0.60;;;;;16.30;98985.00;;;;10477387;28;20244;-80
2021/10/03 00:43:43;;;;;;;1.05;1.00;;;;;16.30;98986.00;;;;10484328;28;20259;-81
2021/10/03 00:48:45;;;;;;;1.48;0.90;;;;;16.40;98978.00;;;;10506570;28;20626;-81
2021/10/03 00:53:48;;;;;;;0.75;0.75;;;;;16.40;98973.00;;;;10473413;28;20568;-80
2021/10/03 00:58:50;;;;;;;1.00;0.68;;;;;16.40;98982.00;;;;10471357;28;20251;-80
2021/10/03 01:03:52;;;;;;;1.85;0.73;;;;;16.40;98961.00;;;;10447423;28;20194;-80
2021/10/03 01:08:54;;;;;;;3.60;0.80;;;;;16.30;98956.00;;;;10486692;28;20237;-79
2021/10/03 01:13:56;;;;;;;1.27;0.95;;;;;16.40;98947.00;;;;10469751;28;20255;-79
2021/10/03 01:18:58;;;;;;;0.80;0.80;;;;;16.40;98952.00;;;;10503310;28;20194;-80
2021/10/03 01:24:00;;;;;;;1.17;0.95;;;;;16.40;98945.00;;;;10469393;28;20200;-79
2021/10/03 01:29:02;;;;;;;3.05;1.05;;;;;16.40;98946.00;;;;10452900;28;20205;-80
2021/10/03 01:34:05;;;;;;;1.30;0.80;;;;;16.40;98951.00;;;;10461254;28;20194;-80
2021/10/03 01:39:07;;;;;;;2.95;1.23;;;;;16.40;98945.00;;;;10444394;28;20191;-80
2021/10/03 01:44:09;;;;;;;2.05;0.70;;;;;16.40;98935.00;;;;10461028;28;20213;-80
2021/10/03 01:49:12;;;;;;;1.52;1.20;;;;;16.40;98924.00;;;;10496181;28;20205;-80
2021/10/03 01:54:14;;;;;;;1.60;0.98;;;;;16.40;98918.00;;;;10484711;28;20197;-80
2021/10/03 01:59:17;;;;;;;1.65;1.40;;;;;16.40;98908.00;;;;10484314;28;20766;-81
2021/10/03 02:04:22;;;;;;;2.28;1.60;;;;;16.40;98913.00;;;;10450833;28;20730;-80
2021/10/03 02:09:26;;;;;;;2.67;1.70;;;;;16.40;98900.00;;;;10450740;28;20372;-80
2021/10/03 02:14:34;;;;;;;2.08;1.50;;;;;16.40;98893.00;;;;10442343;28;20198;-81
2021/10/03 02:19:40;;;;;;;2.03;1.70;;;;;16.50;98893.00;;;;10442554;28;20263;-80
2021/10/03 02:24:42;;;;;;;2.53;2.00;;;;;16.50;98876.00;;;;10490400;28;20186;-80
2021/10/03 02:29:44;;;;;;;2.50;2.30;;;;;16.50;98873.00;;;;10512417;28;20263;-81
2021/10/03 02:34:46;;;;;;;2.67;1.92;;;;;16.50;98849.00;;;;10482402;28;20718;-80
2021/10/03 02:39:48;;;;;;;2.88;2.40;;;;;16.50;98878.00;;;;10466068;28;20209;-80
2021/10/03 02:44:50;;;;;;;7.45;3.25;;;;;16.50;98955.00;;;;10450370;28;20193;-80
2021/10/03 02:49:52;;;;;;;3.33;1.35;;;;;16.20;98937.00;;;;10466999;28;20270;-80
2021/10/03 02:54:53;;;;;;;1.55;1.10;;;;;16.00;98965.00;;;;10467556;28;20671;-80
2021/10/03 02:59:55;;;;;;;2.17;0.90;;;;;15.80;98965.00;;;;10467666;28;20588;-80
2021/10/03 03:04:57;;;;;;;0.67;0.50;;;;;15.50;98926.00;;;;10425628;28;20205;-80
2021/10/03 03:09:59;;;;;;;2.40;0.70;;;;;15.30;98972.00;;;;10467495;28;20228;-81
2021/10/03 03:15:05;;;;;;;1.60;0.43;;;;;15.30;98966.00;;;;10450714;28;20977;-80
2021/10/03 03:20:09;;;;;;;1.57;0.57;;;;;15.10;98974.00;;;;10425377;28;20194;-80
2021/10/03 03:25:13;;;;;;;1.55;0.95;;;;;15.00;98906.00;;;;10425103;28;20645;-80
2021/10/03 03:30:15;;;;;;;0.60;0.57;;;;;14.90;98926.00;;;;10472296;28;20209;-80
2021/10/03 03:35:17;;;;;;;3.80;1.93;;;;;14.90;98951.00;;;;10476062;28;20193;-80
2021/10/03 03:40:20;;;;;;;1.90;1.10;;;;;15.00;98952.00;;;;10426279;28;20210;-81
2021/10/03 03:45:22;;;;;;;0.50;0.40;;;;;14.80;98952.00;;;;10450584;28;20197;-80
2021/10/03 03:50:23;;;;;;;1.60;0.50;;;;;14.50;98938.00;;;;10467513;28;20213;-79
2021/10/03 03:55:25;;;;;;;3.07;0.53;;;;;14.30;98955.00;;;;10483084;28;20225;-79
2021/10/03 04:00:27;;;;;;;1.67;0.60;;;;;14.00;98965.00;;;;10482014;28;20714;-79
2021/10/03 04:05:29;;;;;;;1.90;0.67;;;;;13.90;98955.00;;;;10483564;28;20194;-80
2021/10/03 04:10:32;;;;;;;2.13;0.60;;;;;13.80;98942.00;;;;10467086;28;20225;-80
2021/10/03 04:15:34;;;;;;;1.90;0.60;;;;;13.70;98938.00;;;;10452954;28;20255;-80
2021/10/03 04:20:36;;;;;;;2.37;1.00;;;;;13.70;98937.00;;;;10500376;28;20239;-81
2021/10/03 04:25:39;;;;;;;3.83;0.87;;;;;13.70;98941.00;;;;10450451;28;20189;-81
2021/10/03 04:30:42;;;;;;;1.93;0.77;;;;;13.70;98936.00;;;;10482737;28;20214;-81
2021/10/03 04:35:44;;;;;;;2.73;1.10;;;;;13.80;98934.00;;;;10472820;28;20193;-81
2021/10/03 04:40:46;;;;;;;2.50;1.10;;;;;13.70;98937.00;;;;10456631;28;20217;-82
2021/10/03 04:45:48;;;;;;;1.80;0.77;;;;;13.80;98929.00;;;;10506023;28;20186;-81
2021/10/03 04:50:50;;;;;;;1.10;1.00;;;;;13.70;98937.00;;;;10489333;28;20833;-81
2021/10/03 04:55:52;;;;;;;3.60;1.37;;;;;13.70;98948.00;;;;10489444;28;20194;-80
2021/10/03 05:00:54;;;;;;;1.20;1.10;;;;;13.70;98949.00;;;;10472210;28;20276;-81
2021/10/03 05:05:56;;;;;;;1.00;0.80;;;;;13.70;98936.00;;;;10472198;28;20190;-82
2021/10/03 05:10:58;;;;;;;2.43;0.80;;;;;13.80;98938.00;;;;10488726;28;20603;-81
2021/10/03 05:16:00;;;;;;;1.00;0.90;;;;;13.80;98936.00;;;;10471498;28;20251;-81
2021/10/03 05:21:06;;;;;;;1.13;1.00;;;;;13.80;98912.00;;;;10467176;28;20675;-81
2021/10/03 05:26:08;;;;;;;2.10;1.30;;;;;13.70;98924.00;;;;10471304;28;20198;-81
2021/10/03 05:31:09;;;;;;;2.30;1.00;;;;;13.70;98925.00;;;;10470402;28;20664;-81
2021/10/03 05:36:11;;;;;;;1.80;1.03;;;;;13.60;98937.00;;;;10471002;28;20193;-81
2021/10/03 05:41:13;;;;;;;2.03;1.00;;;;;13.50;98932.00;;;;10454394;28;20210;-80
2021/10/03 05:46:15;;;;;;;1.80;1.07;;;;;13.50;98923.00;;;;10486494;28;20603;-80
2021/10/03 05:51:17;;;;;;;1.83;1.00;;;;;13.50;98926.00;;;;10470212;28;20225;-80
2021/10/03 05:56:19;;;;;;;3.13;1.00;;;;;13.50;98929.00;;;;10453694;28;20877;-80
2021/10/03 06:01:21;;;;;;;2.20;0.97;;;;;13.50;98941.00;;;;10461679;28;20244;-80
2021/10/03 06:06:24;;;;;;;2.73;1.07;;;;;13.40;98929.00;;;;10485885;28;20200;-80
2021/10/03 06:11:30;;;;;;;1.30;0.83;;;;;13.40;98941.00;;;;10468432;28;20205;-81
2021/10/03 06:16:33;;;;;;;2.20;0.70;;;;;13.30;98948.00;;;;10486739;28;20194;-80
2021/10/03 06:21:35;;;;;;;1.37;0.63;;;;;13.00;98955.00;;;;10467489;28;20186;-80
2021/10/03 06:26:37;;;;;;;3.73;0.73;;;;;12.80;98960.00;;;;10501137;28;20194;-80
2021/10/03 06:31:39;;;;;;;1.97;1.00;;;;;12.60;98969.00;;;;10467621;28;20672;-80
2021/10/03 06:36:41;;;;;;;3.53;1.87;;;;;12.50;98979.00;;;;10451064;28;20620;-79
2021/10/03 06:41:43;;;;;;;5.67;1.90;;;;;12.40;98992.00;;;;10434312;28;20220;-80
2021/10/03 06:46:45;;;;;;;3.83;2.43;;;;;12.30;99000.00;;;;10450009;28;20209;-80
2021/10/03 06:51:47;;;;;;;4.37;3.17;;;;;12.30;98986.00;;;;10466907;28;20222;-80
2021/10/03 06:56:49;;;;;;;7.17;3.30;;;;;12.30;99027.00;;;;10448524;28;20194;-80
2021/10/03 07:01:53;;;;;;;5.97;3.20;;;;;12.30;99028.00;;;;10482055;28;20193;-80
2021/10/03 07:06:55;;;;;;;6.40;3.23;;;;;12.30;99028.00;;;;10482784;28;20225;-80
2021/10/03 07:11:57;;;;;;;6.27;3.63;;;;;12.30;99048.00;;;;10483386;28;20258;-80
2021/10/03 07:16:59;;;;;;;9.17;4.20;;;;;12.30;99050.00;;;;10483305;28;20644;-81
2021/10/03 07:22:03;;;;;;;8.93;5.03;;;;;12.30;99056.00;;;;10499405;28;20194;-81
2021/10/03 07:27:05;;;;;;;9.23;4.10;;;;;12.30;99047.00;;;;10453079;28;20185;-80
2021/10/03 07:32:09;;;;;;;10.77;4.77;;;;;12.30;99053.00;;;;10474864;28;20267;-81
2021/10/03 07:37:10;;;;;;;6.27;3.67;;;;;12.30;99055.00;;;;10443139;28;20251;-81
2021/10/03 07:42:12;;;;;;;4.63;3.40;;;;;12.30;99063.00;;;;10466454;28;20217;-81
2021/10/03 07:47:14;;;;;;;7.93;4.50;;;;;12.40;99070.00;;;;10465662;28;20229;-80
2021/10/03 07:52:16;;;;;;;6.27;3.37;;;;;12.50;99088.00;;;;10476534;28;20221;-81
2021/10/03 07:57:19;;;;;;;7.80;4.03;;;;;12.60;99084.00;;;;10415971;28;20189;-81
2021/10/03 08:02:21;;;;;;;4.30;3.43;;;;;12.60;99079.00;;;;10459278;28;20198;-80
2021/10/03 08:07:23;;;;;;;10.97;3.97;;;;;12.60;99087.00;;;;10467795;28;20622;-81
2021/10/03 08:12:25;;;;;;;14.43;5.80;;;;;12.60;99106.00;;;;10447818;28;20236;-80
2021/10/03 08:17:27;;;;;;;9.67;6.70;;;;;12.70;99110.00;;;;10488240;28;20197;-81
2021/10/03 08:22:29;;;;;;;7.07;4.47;;;;;12.80;99122.00;;;;10513037;28;20203;-80
2021/10/03 08:27:33;;;;;;;7.07;4.30;;;;;12.80;99101.00;;;;10527846;28;20212;-81
2021/10/03 08:32:36;;;;;;;5.50;3.67;;;;;12.90;99104.00;;;;10495802;28;20224;-81
2021/10/03 08:37:38;;;;;;;5.93;3.30;;;;;12.90;99110.00;;;;10467206;28;20233;-80
2021/10/03 08:42:40;;;;;;;7.63;4.27;;;;;13.00;99106.00;;;;10436321;28;20210;-81
2021/10/03 08:47:43;;;;;;;10.13;4.30;;;;;13.00;99150.00;;;;10496436;28;20560;-81
2021/10/03 08:52:46;;;;;;;7.63;4.33;;;;;13.10;99132.00;;;;10466109;28;20214;-81
2021/10/03 08:57:48;;;;;;;6.20;4.83;;;;;13.20;99115.00;;;;10469746;28;20190;-81
2021/10/03 09:02:55;;;;;;;6.27;4.03;;;;;13.20;99110.00;;;;10471864;28;20685;-81
2021/10/03 09:08:03;;;;;;;8.10;5.37;;;;;13.20;99117.00;;;;10482679;28;20613;-81
2021/10/03 09:13:04;;;;;;;7.97;5.37;;;;;13.20;99129.00;;;;10506328;28;20262;-81
2021/10/03 09:18:09;;;;;;;6.93;4.63;;;;;13.50;99129.00;;;;10474548;28;20538;-81
2021/10/03 09:23:21;;;;;;;6.47;4.80;;;;;13.60;99142.00;;;;10457803;28;20214;-81
2021/10/03 09:28:23;;;;;;;7.30;4.97;;;;;13.80;99146.00;;;;10459309;28;20189;-81
2021/10/03 09:33:38;;;;;;;6.27;4.33;;;;;14.00;99140.00;;;;10476224;28;20603;-81
2021/10/03 09:38:56;;;;;;;6.43;4.50;;;;;14.00;99171.00;;;;10504357;28;20196;-81
2021/10/03 09:44:00;;;;;;;6.23;4.40;;;;;14.10;99169.00;;;;10448735;28;20217;-81
2021/10/03 09:49:06;;;;;;;4.47;3.50;;;;;14.20;99168.00;;;;10442794;28;20206;-81
2021/10/03 09:54:09;;;;;;;5.27;3.77;;;;;14.20;99165.00;;;;10447357;28;20221;-81
2021/10/03 09:59:11;;;;;;;5.37;4.40;;;;;14.00;99164.00;;;;10480220;28;20745;-82
2021/10/03 10:04:16;;;;;;;5.37;4.10;;;;;13.80;99165.00;;;;10456814;28;20197;-81
2021/10/03 10:09:23;;;;;;;5.07;4.37;;;;;13.70;99164.00;;;;10494173;28;20197;-82
2021/10/03 10:14:38;;;;;;;6.30;4.67;;;;;13.70;99196.00;;;;10514857;28;20204;-81
2021/10/03 10:19:42;;;;;;;8.87;3.80;;;;;13.70;99198.00;;;;10479267;28;20189;-81
2021/10/03 10:24:44;;;;;;;7.17;3.50;;;;;13.70;99215.00;;;;10443514;28;22288;-81
2021/10/03 10:30:03;;;;;;;4.10;3.23;;;;;13.80;99209.00;;;;10479976;28;20205;-80
2021/10/03 10:35:08;;;;;;;5.43;3.47;;;;;14.00;99237.00;;;;10427985;28;20201;-81
2021/10/03 10:40:20;;;;;;;3.73;3.23;;;;;14.10;99240.00;;;;10481218;28;21013;-80
2021/10/03 10:45:29;;;;;;;3.77;3.47;;;;;14.20;99242.00;;;;10465104;28;20197;-80
2021/10/03 10:50:32;;;;;;;4.30;3.47;;;;;14.10;99228.00;;;;10464412;28;20263;-80
2021/10/03 10:55:34;;;;;;;4.77;3.87;;;;;14.10;99217.00;;;;10467285;28;20194;-80
2021/10/03 11:00:54;;;;;;;4.43;3.50;;;;;14.20;99227.00;;;;10479934;28;20220;-81
2021/10/03 11:05:57;;;;;;;6.57;4.90;;;;;14.10;99246.00;;;;10454956;28;21028;-81
2021/10/03 11:10:59;;;;;;;8.23;4.80;;;;;14.10;99263.00;;;;10489421;28;20301;-80
2021/10/03 11:16:25;;;;;;;4.90;4.40;;;;;14.20;99252.00;;;;10441804;28;20194;-80
2021/10/03 11:21:37;;;;;;;7.20;4.80;;;;;13.90;99274.00;;;;10484152;28;20648;-80
2021/10/03 11:26:56;;;;;;;6.60;5.47;;;;;13.90;99295.00;;;;10443533;28;20224;-79
2021/10/03 11:32:04;;;;;;;7.23;6.53;;;;;13.70;99326.00;;;;10476826;28;20217;-80
2021/10/03 11:37:13;;;;;;;12.60;9.43;;;;;13.40;99356.00;;;;10467227;28;20193;-81
2021/10/03 11:42:29;;;;;;;5.67;4.90;;;;;13.40;99350.00;;;;10469328;28;20230;-81
2021/10/03 11:47:39;;;;;;;8.80;6.00;;;;;13.60;99354.00;;;;10443186;28;20201;-81
2021/10/03 11:52:41;;;;;;;9.07;6.97;;;;;13.50;99388.00;;;;10458482;28;20213;-81
2021/10/03 11:57:46;;;;;;;7.03;5.03;;;;;13.70;99364.00;;;;10449932;28;20209;-80
2021/10/03 12:02:53;;;;;;;5.47;4.40;;;;;13.90;99377.00;;;;10446310;28;20293;-81
2021/10/03 12:08:04;;;;;;;4.30;3.90;;;;;13.70;99384.00;;;;10476658;28;20193;-80
2021/10/03 12:13:11;;;;;;;3.50;2.53;;;;;13.30;99407.00;;;;10487085;28;20275;-82
2021/10/03 12:18:37;;;;;;;3.17;2.50;;;;;13.20;99422.00;;;;10433063;28;20198;-81
2021/10/03 12:23:50;;;;;;;2.43;2.23;;;;;13.00;99469.00;;;;10492002;28;20188;-81
2021/10/03 12:29:05;;;;;;;2.87;2.30;;;;;13.00;99483.00;;;;10459291;28;20193;-81
2021/10/03 12:34:29;;;;;;;2.97;2.20;;;;;12.70;99511.00;;;;10479011;28;20712;-82
2021/10/03 12:39:55;;;;;;;1.30;1.20;;;;;12.80;99535.00;;;;10484521;28;20252;-81
2021/10/03 12:44:59;;;;;;;1.77;1.10;;;;;12.90;99540.00;;;;10479967;28;20644;-82
2021/10/03 12:50:02;;;;;;;1.93;1.00;;;;;12.80;99544.00;;;;10464550;28;20549;-81
2021/10/03 12:55:08;;;;;;;1.63;1.10;;;;;12.80;99573.00;;;;10439399;28;20247;-81
2021/10/03 13:00:11;;;;;;;2.13;1.10;;;;;12.50;99567.00;;;;10450511;28;20792;-80
2021/10/03 13:05:16;;;;;;;1.67;0.97;;;;;12.50;99555.00;;;;10462689;28;20198;-81
2021/10/03 13:10:18;;;;;;;2.53;1.40;;;;;12.70;99584.00;;;;10505698;28;20218;-81
2021/10/03 13:15:20;;;;;;;1.70;1.60;;;;;12.70;99623.00;;;;10506395;28;20189;-81
2021/10/03 13:20:21;;;;;;;1.73;1.30;;;;;12.90;99632.00;;;;10492464;28;20241;-81
2021/10/03 13:25:23;;;;;;;2.63;1.43;;;;;13.00;99654.00;;;;10481803;28;20229;-81
2021/10/03 13:30:25;;;;;;;3.73;1.47;;;;;13.10;99674.00;;;;10488041;28;20206;-81
2021/10/03 13:35:28;;;;;;;4.13;1.70;;;;;13.20;99669.00;;;;10483528;28;20296;-81
2021/10/03 13:40:30;;;;;;;2.10;1.70;;;;;13.50;99652.00;;;;10451965;28;20218;-80
2021/10/03 13:45:32;;;;;;;2.97;1.67;;;;;13.90;99675.00;;;;10457367;28;20212;-81
2021/10/03 13:50:34;;;;;;;5.00;1.67;;;;;13.90;99714.00;;;;10459057;28;20220;-80
2021/10/03 13:55:37;;;;;;;2.97;1.47;;;;;13.90;99736.00;;;;10468328;28;20208;-80
2021/10/03 14:00:39;;;;;;;4.90;1.80;;;;;13.90;99769.00;;;;10455132;28;20209;-80
2021/10/03 14:05:42;;;;;;;1.63;1.53;;;;;13.90;99765.00;;;;10467830;28;20651;-80
2021/10/03 14:10:44;;;;;;;2.63;1.47;;;;;14.20;99785.00;;;;10491830;28;20561;-80
2021/10/03 14:15:46;;;;;;;3.57;1.30;;;;;14.00;99809.00;;;;10471384;28;20217;-80
2021/10/03 14:20:48;;;;;;;6.23;1.83;;;;;14.10;99807.00;;;;10470485;28;20601;-80
2021/10/03 14:25:49;;;;;;;2.40;1.73;;;;;14.20;99820.00;;;;10461948;28;20229;-79
2021/10/03 14:30:51;;;;;;;2.50;1.60;;;;;14.10;99857.00;;;;10496830;28;20237;-79
2021/10/03 14:35:54;;;;;;;7.10;2.27;;;;;13.80;99870.00;;;;10476781;28;20224;-78
2021/10/03 14:40:56;;;;;;;4.13;2.77;;;;;13.70;99873.00;;;;10482362;28;20603;-78
2021/10/03 14:45:57;;;;;;;6.23;3.30;;;;;13.80;99888.00;;;;10488316;28;20233;-79
2021/10/03 14:51:00;;;;;;;3.10;2.80;;;;;13.80;99917.00;;;;10446581;28;20259;-78
2021/10/03 14:56:03;;;;;;;6.57;3.30;;;;;13.70;99945.00;;;;10464612;28;20224;-79
2021/10/03 15:01:05;;;;;;;3.90;3.07;;;;;13.50;99949.00;;;;10498440;28;20656;-79
2021/10/03 15:06:08;;;;;;;3.93;3.03;;;;;13.50;99958.00;;;;10448625;28;20208;-77
2021/10/03 15:11:10;;;;;;;5.67;2.80;;;;;13.60;99967.00;;;;10480176;28;20213;-78
2021/10/03 15:16:12;;;;;;;6.57;3.07;;;;;13.90;99979.00;;;;10479355;28;20197;-78
2021/10/03 15:21:14;;;;;;;3.13;2.77;;;;;14.30;99984.00;;;;10482197;28;20216;-78
2021/10/03 15:26:16;;;;;;;4.10;3.50;;;;;15.10;99983.00;;;;10480352;28;20198;-78
2021/10/03 15:31:17;;;;;;;4.10;2.70;;;;;14.90;99973.00;;;;10465421;28;20229;-78
2021/10/03 15:36:19;;;;;;;3.63;2.60;;;;;14.50;99976.00;;;;10493019;28;20229;-78
2021/10/03 15:41:21;;;;;;;2.97;2.60;;;;;14.20;99976.00;;;;10438680;28;20282;-78
2021/10/03 15:46:24;;;;;;;4.70;2.90;;;;;13.90;100000.00;;;;10448351;28;20216;-79
2021/10/03 15:51:28;;;;;;;3.33;2.70;;;;;13.70;100009.00;;;;10442165;28;20218;-78
2021/10/03 15:56:30;;;;;;;3.90;2.93;;;;;13.70;100026.00;;;;10437649;28;20265;-78
2021/10/03 16:01:31;;;;;;;4.83;2.90;;;;;13.50;100027.00;;;;10461357;28;20252;-78
2021/10/03 16:06:34;;;;;;;3.73;2.80;;;;;13.20;100044.00;;;;10455160;28;20720;-78
2021/10/03 16:11:35;;;;;;;5.33;3.03;;;;;13.00;100048.00;;;;10496845;28;20294;-78
2021/10/03 16:16:37;;;;;;;6.57;3.27;;;;;12.90;100065.00;;;;10468257;28;20244;-78
2021/10/03 16:21:39;;;;;;;4.70;3.20;;;;;12.80;100085.00;;;;10453318;28;20198;-78
2021/10/03 16:26:41;;;;;;;6.27;3.10;;;;;12.60;100089.00;;;;10476466;28;20182;-78
2021/10/03 16:31:44;;;;;;;3.73;2.80;;;;;12.50;100102.00;;;;10467414;28;20213;-78
2021/10/03 16:36:47;;;;;;;4.53;2.90;;;;;12.30;100115.00;;;;10471469;28;20226;-78
2021/10/03 16:41:49;;;;;;;7.17;3.03;;;;;12.20;100133.00;;;;10461315;28;20207;-78
2021/10/03 16:46:51;;;;;;;4.20;2.57;;;;;12.00;100143.00;;;;10464478;28;20187;-78
2021/10/03 16:51:53;;;;;;;4.40;2.60;;;;;12.00;100143.00;;;;10493924;28;20226;-78
2021/10/03 16:56:55;;;;;;;4.57;2.53;;;;;11.90;100161.00;;;;10489823;28;20189;-78
2021/10/03 17:01:57;;;;;;;3.57;2.60;;;;;11.80;100174.00;;;;10497029;28;20182;-78
2021/10/03 17:06:59;;;;;;;6.53;3.53;;;;;11.70;100192.00;;;;10459355;28;20281;-78
2021/10/03 17:12:02;;;;;;;5.93;3.60;;;;;11.70;100202.00;;;;10472095;28;20237;-78
2021/10/03 17:17:04;;;;;;;8.67;3.97;;;;;11.70;100207.00;;;;10477696;28;20193;-78
2021/10/03 17:22:07;;;;;;;6.13;4.30;;;;;11.70;100204.00;;;;10454590;28;20201;-77
2021/10/03 17:27:09;;;;;;;6.60;4.23;;;;;11.60;100225.00;;;;10498505;28;20194;-78
2021/10/03 17:32:12;;;;;;;9.23;4.50;;;;;11.60;100244.00;;;;10470495;28;20206;-77
2021/10/03 17:37:14;;;;;;;6.30;3.70;;;;;11.50;100257.00;;;;10470328;28;20648;-78
2021/10/03 17:42:17;;;;;;;7.00;3.73;;;;;11.50;100283.00;;;;10468617;28;20212;-78
2021/10/03 17:47:19;;;;;;;7.77;3.53;;;;;11.40;100297.00;;;;10469272;28;20190;-78
2021/10/03 17:52:21;;;;;;;5.10;3.00;;;;;11.40;100317.00;;;;10452420;28;20247;-78
2021/10/03 17:57:23;;;;;;;6.20;2.87;;;;;11.40;100305.00;;;;10469250;28;20318;-78
2021/10/03 18:02:25;;;;;;;5.77;2.10;;;;;11.40;100307.00;;;;10469568;28;20197;-78
2021/10/03 18:07:27;;;;;;;3.57;2.47;;;;;11.40;100338.00;;;;10502828;28;20281;-78
2021/10/03 18:12:29;;;;;;;4.93;2.07;;;;;11.40;100343.00;;;;10468998;28;20237;-77
2021/10/03 18:17:30;;;;;;;2.97;1.77;;;;;11.40;100346.00;;;;10468612;28;20580;-77
2021/10/03 18:22:34;;;;;;;8.63;2.40;;;;;11.30;100352.00;;;;10451818;28;20190;-77
2021/10/03 18:27:36;;;;;;;4.93;2.53;;;;;11.30;100386.00;;;;10468611;28;20193;-78
2021/10/03 18:32:39;;;;;;;4.10;1.83;;;;;11.30;100390.00;;;;10484412;28;20275;-77
2021/10/03 18:37:42;;;;;;;5.37;1.90;;;;;11.30;100393.00;;;;10451091;28;20194;-78
2021/10/03 18:42:44;;;;;;;2.50;1.73;;;;;11.30;100391.00;;;;10450940;28;20771;-77
2021/10/03 18:47:46;;;;;;;3.50;1.70;;;;;11.30;100423.00;;;;10484453;28;20193;-77
2021/10/03 18:52:48;;;;;;;2.40;1.57;;;;;11.30;100436.00;;;;10483942;28;20240;-77
2021/10/03 18:57:50;;;;;;;2.13;1.27;;;;;11.30;100444.00;;;;10467719;28;20691;-78
2021/10/03 19:02:52;;;;;;;3.80;1.40;;;;;11.30;100451.00;;;;10450260;28;20260;-77
2021/10/03 19:07:54;;;;;;;2.63;1.40;;;;;11.30;100467.00;;;;10450184;28;20251;-77
2021/10/03 19:12:56;;;;;;;3.63;1.47;;;;;11.20;100483.00;;;;10467440;28;20274;-77
2021/10/03 19:18:00;;;;;;;2.80;1.87;;;;;11.30;100479.00;;;;10467312;28;20227;-78
2021/10/03 19:23:03;;;;;;;3.00;1.60;;;;;11.40;100476.00;;;;10466421;28;20534;-77
2021/10/03 19:28:05;;;;;;;3.67;1.57;;;;;11.40;100482.00;;;;10483265;28;20198;-77
2021/10/03 19:33:07;;;;;;;3.40;1.70;;;;;11.40;100489.00;;;;10482944;28;20857;-77
2021/10/03 19:38:12;;;;;;;3.73;1.50;;;;;11.40;100505.00;;;;10463689;28;20545;-78
2021/10/03 19:43:15;;;;;;;2.10;1.23;;;;;11.40;100504.00;;;;10474875;28;20665;-77
2021/10/03 19:48:17;;;;;;;2.87;1.50;;;;;11.40;100508.00;;;;10392925;28;20256;-77
2021/10/03 19:53:19;;;;;;;4.83;1.40;;;;;11.40;100515.00;;;;10441136;28;20290;-77
2021/10/03 19:58:21;;;;;;;5.37;1.60;;;;;11.30;100540.00;;;;10456254;28;20201;-77
2021/10/03 20:03:23;;;;;;;4.30;1.53;;;;;11.30;100539.00;;;;10484525;28;20208;-77
2021/10/03 20:08:25;;;;;;;2.20;1.43;;;;;11.30;100554.00;;;;10490576;28;20204;-77
2021/10/03 20:13:27;;;;;;;2.20;1.20;;;;;11.30;100570.00;;;;10506897;28;20213;-78
2021/10/03 20:18:30;;;;;;;4.37;1.50;;;;;11.30;100567.00;;;;10506218;28;20237;-78
2021/10/03 20:23:35;;;;;;;7.40;1.93;;;;;11.40;100579.00;;;;10489908;28;20307;-78
2021/10/03 20:28:37;;;;;;;4.13;1.17;;;;;11.30;100580.00;;;;10473042;28;20205;-77
2021/10/03 20:33:39;;;;;;;3.70;1.00;;;;;11.30;100578.00;;;;10440590;28;20214;-78
2021/10/03 20:38:42;;;;;;;4.20;1.40;;;;;11.40;100598.00;;;;10472064;28;20209;-78
2021/10/03 20:43:45;;;;;;;1.60;0.93;;;;;11.40;100600.00;;;;10472528;28;20209;-78
2021/10/03 20:48:48;;;;;;;4.50;1.13;;;;;11.30;100609.00;;;;10505051;28;20225;-78
2021/10/03 20:53:50;;;;;;;2.03;1.10;;;;;11.30;100601.00;;;;10488001;28;20225;-78
2021/10/03 20:58:53;;;;;;;1.50;1.00;;;;;11.30;100605.00;;;;10464785;28;20233;-77
2021/10/03 21:03:55;;;;;;;4.40;1.10;;;;;11.20;100600.00;;;;10509585;28;20514;-78
2021/10/03 21:08:57;;;;;;;2.50;1.30;;;;;11.20;100603.00;;;;10461641;28;20264;-77
2021/10/03 21:13:59;;;;;;;5.97;1.20;;;;;11.20;100590.00;;;;10455704;28;20278;-77
2021/10/03 21:19:03;;;;;;;2.93;0.73;;;;;11.10;100588.00;;;;10500302;28;20217;-77
2021/10/03 21:24:05;;;;;;;4.50;1.30;;;;;11.10;100597.00;;;;10472391;28;20193;-77
2021/10/03 21:29:07;;;;;;;2.03;1.60;;;;;11.10;100601.00;;;;10490153;28;20228;-77
2021/10/03 21:34:10;;;;;;;4.30;1.50;;;;;11.10;100608.00;;;;10491748;28;20245;-78
2021/10/03 21:39:13;;;;;;;4.33;1.50;;;;;11.10;100594.00;;;;10452895;28;20224;-77
2021/10/03 21:44:15;;;;;;;2.83;1.33;;;;;11.00;100602.00;;;;10434223;28;20218;-77
2021/10/03 21:49:17;;;;;;;6.93;1.23;;;;;11.00;100619.00;;;;10470538;28;20279;-77
2021/10/03 21:54:19;;;;;;;1.93;1.17;;;;;11.00;100619.00;;;;10448327;28;20297;-78
2021/10/03 21:59:21;;;;;;;5.77;1.03;;;;;11.10;100630.00;;;;10438873;28;20194;-77
2021/10/03 22:04:23;;;;;;;5.60;1.37;;;;;11.10;100636.00;;;;10412374;28;20268;-77
2021/10/03 22:09:25;;;;;;;2.63;0.90;;;;;11.10;100648.00;;;;10412644;28;20225;-76
2021/10/03 22:14:27;;;;;;;4.03;1.10;;;;;11.10;100644.00;;;;10443226;28;20268;-77
2021/10/03 22:19:29;;;;;;;2.20;1.23;;;;;11.10;100645.00;;;;10426776;28;20285;-77
2021/10/03 22:24:31;;;;;;;3.80;0.97;;;;;11.10;100653.00;;;;10442105;28;20265;-77
2021/10/03 22:29:33;;;;;;;4.60;0.80;;;;;11.20;100659.00;;;;10435021;28;20277;-77
2021/10/03 22:34:35;;;;;;;5.37;1.50;;;;;11.10;100673.00;;;;10431057;28;20215;-77
2021/10/03 22:39:37;;;;;;;2.97;1.30;;;;;11.20;100674.00;;;;10400729;28;20218;-76
2021/10/03 22:44:39;;;;;;;5.53;1.17;;;;;11.20;100661.00;;;;10416557;28;20194;-77
2021/10/03 22:49:41;;;;;;;3.57;1.40;;;;;11.20;100661.00;;;;10424735;28;20194;-77
2021/10/03 22:54:44;;;;;;;4.83;1.30;;;;;11.20;100676.00;;;;10459452;28;20218;-77
2021/10/03 22:59:46;;;;;;;8.03;1.77;;;;;11.20;100674.00;;;;10484723;28;20193;-77
2021/10/03 23:04:48;;;;;;;3.53;1.23;;;;;11.20;100675.00;;;;10439660;28;20236;-77
2021/10/03 23:09:50;;;;;;;3.00;1.60;;;;;11.10;100682.00;;;;10441092;28;20216;-77
2021/10/03 23:14:52;;;;;;;5.73;1.80;;;;;11.10;100669.00;;;;10424560;28;20237;-77
2021/10/03 23:19:54;;;;;;;6.67;2.40;;;;;11.10;100671.00;;;;10441388;28;20710;-77
2021/10/03 23:24:55;;;;;;;4.97;1.70;;;;;11.10;100659.00;;;;10457793;28;20210;-77
2021/10/03 23:29:57;;;;;;;4.77;1.80;;;;;11.20;100662.00;;;;10453002;28;20205;-77
2021/10/03 23:34:59;;;;;;;4.67;2.73;;;;;11.20;100660.00;;;;10485461;28;20692;-76
2021/10/03 23:40:02;;;;;;;4.23;2.50;;;;;11.30;100674.00;;;;10478276;28;20432;-76
2021/10/03 23:45:06;;;;;;;7.97;2.47;;;;;11.30;100695.00;;;;10448997;28;20198;-77
2021/10/03 23:50:08;;;;;;;5.63;2.80;;;;;11.30;100693.00;;;;10465089;28;20652;-77
2021/10/03 23:55:10;;;;;;;3.73;2.33;;;;;11.20;100713.00;;;;10432812;28;20210;-76
